createdAt,value
2023-02-16T00:01:35.219Z,41.87
2023-02-16T00:04:05.223Z,44.50
2023-02-16T00:06:31.861Z,44.03
2023-02-16T00:08:58.431Z,42.90
2023-02-16T00:11:56.435Z,41.53
2023-02-16T00:14:26.091Z,42.57
2023-02-16T00:16:57.439Z,41.13
2023-02-16T00:19:26.724Z,44.43
2023-02-16T00:21:56.700Z,43.27
2023-02-16T00:24:24.413Z,41.77
2023-02-16T00:26:51.097Z,42.03
2023-02-16T00:29:25.943Z,41.63
2023-02-16T00:31:54.109Z,40.37
2023-02-16T00:34:34.058Z,39.30
2023-02-16T00:37:03.105Z,38.73
2023-02-16T00:39:30.553Z,37.23
2023-02-16T00:42:18.510Z,36.23
2023-02-16T00:44:48.528Z,37.40
2023-02-16T00:47:19.930Z,38.07
2023-02-16T00:49:49.172Z,36.20
2023-02-16T00:52:28.749Z,34.97
2023-02-16T00:54:55.991Z,35.73
2023-02-16T00:57:23.274Z,38.00
2023-02-16T00:59:57.860Z,36.73
2023-02-16T01:02:24.562Z,37.57
2023-02-16T01:04:51.483Z,39.63
2023-02-16T01:07:38.536Z,39.67
2023-02-16T01:10:25.119Z,40.33
2023-02-16T01:12:51.816Z,41.57
2023-02-16T01:15:22.640Z,39.60
2023-02-16T01:17:49.657Z,41.67
2023-02-16T01:20:23.637Z,39.17
2023-02-16T01:22:50.338Z,40.27
2023-02-16T01:25:17.105Z,39.73
2023-02-16T01:27:45.626Z,42.17
2023-02-16T01:30:19.707Z,40.40
2023-02-16T01:32:52.302Z,42.20
2023-02-16T01:35:38.905Z,37.70
2023-02-16T01:38:07.043Z,40.97
2023-02-16T01:40:33.990Z,41.10
2023-02-16T01:43:19.366Z,40.70
2023-02-16T01:45:51.783Z,40.30
2023-02-16T01:48:25.984Z,41.60
2023-02-16T01:51:02.909Z,43.33
2023-02-16T01:53:51.989Z,44.03
2023-02-16T01:56:50.289Z,43.73
2023-02-16T01:59:42.314Z,44.03
2023-02-16T02:02:21.264Z,45.07
2023-02-16T02:05:11.824Z,46.30
2023-02-16T02:07:46.607Z,45.13
2023-02-16T02:10:35.982Z,46.83
2023-02-16T02:13:09.345Z,45.00
2023-02-16T02:15:36.077Z,46.00
2023-02-16T02:18:03.439Z,44.07
2023-02-16T02:20:50.181Z,43.23
2023-02-16T02:23:55.984Z,42.77
2023-02-16T02:26:59.883Z,42.17
2023-02-16T02:29:54.320Z,41.33
2023-02-16T02:32:33.826Z,42.17
2023-02-16T02:35:19.514Z,42.20
2023-02-16T02:38:04.051Z,39.80
2023-02-16T02:40:35.060Z,39.57
2023-02-16T02:43:23.745Z,38.20
2023-02-16T02:45:55.954Z,40.40
2023-02-16T02:48:22.718Z,37.90
2023-02-16T02:51:20.659Z,39.07
2023-02-16T02:54:16.804Z,38.27
2023-02-16T02:57:08.502Z,39.43
2023-02-16T02:59:55.511Z,36.77
2023-02-16T03:02:24.158Z,37.03
2023-02-16T03:04:54.140Z,38.07
2023-02-16T03:07:44.235Z,37.33
2023-02-16T03:10:29.631Z,38.57
2023-02-16T03:12:58.040Z,37.00
2023-02-16T03:15:25.843Z,37.03
2023-02-16T03:18:14.893Z,37.43
2023-02-16T03:21:02.584Z,36.53
2023-02-16T03:23:48.664Z,34.40
2023-02-16T03:26:34.511Z,36.73
2023-02-16T03:29:21.266Z,36.53
2023-02-16T03:31:49.183Z,36.30
2023-02-16T03:34:17.713Z,35.87
2023-02-16T03:36:48.830Z,37.20
2023-02-16T03:39:16.475Z,35.70
2023-02-16T03:41:50.115Z,36.37
2023-02-16T03:44:17.689Z,35.27
2023-02-16T03:46:44.765Z,37.07
2023-02-16T03:49:11.551Z,36.40
2023-02-16T03:51:38.618Z,35.63
2023-02-16T03:54:05.200Z,37.23
2023-02-16T03:56:32.600Z,35.43
2023-02-16T03:58:59.164Z,35.90
2023-02-16T04:01:26.076Z,34.57
2023-02-16T04:03:52.725Z,33.80
2023-02-16T04:06:21.300Z,34.57
2023-02-16T04:08:47.907Z,35.63
2023-02-16T04:11:33.043Z,36.30
2023-02-16T04:13:59.579Z,35.67
2023-02-16T04:16:26.206Z,36.27
2023-02-16T04:18:53.139Z,36.73
2023-02-16T04:21:19.923Z,36.90
2023-02-16T04:23:46.512Z,35.40
2023-02-16T04:26:13.114Z,36.37
2023-02-16T04:28:40.153Z,36.97
2023-02-16T04:31:07.166Z,35.13
2023-02-16T04:33:33.961Z,35.30
2023-02-16T04:36:00.532Z,39.63
2023-02-16T04:38:27.103Z,38.20
2023-02-16T04:40:53.704Z,39.23
2023-02-16T04:43:20.243Z,37.57
2023-02-16T04:45:46.982Z,38.80
2023-02-16T04:48:13.674Z,38.70
2023-02-16T04:50:41.392Z,41.73
2023-02-16T04:53:08.037Z,40.87
2023-02-16T04:55:34.868Z,40.63
2023-02-16T04:58:01.798Z,42.43
2023-02-16T05:00:28.964Z,42.43
2023-02-16T05:02:56.593Z,42.57
2023-02-16T05:05:23.171Z,41.07
2023-02-16T05:07:51.280Z,40.80
2023-02-16T05:10:18.437Z,39.47
2023-02-16T05:13:03.732Z,40.93
2023-02-16T05:15:30.511Z,40.37
2023-02-16T05:17:57.265Z,39.17
2023-02-16T05:20:44.877Z,39.90
2023-02-16T05:23:11.507Z,38.30
2023-02-16T05:25:39.128Z,38.80
2023-02-16T05:28:06.028Z,38.73
2023-02-16T05:30:32.850Z,38.50
2023-02-16T05:32:59.465Z,38.30
2023-02-16T05:35:26.216Z,38.27
2023-02-16T05:37:53.037Z,37.57
2023-02-16T05:40:21.288Z,36.97
2023-02-16T05:42:53.150Z,36.07
2023-02-16T05:45:20.750Z,35.00
2023-02-16T05:47:47.869Z,34.93
2023-02-16T05:50:14.468Z,35.87
2023-02-16T05:52:41.192Z,35.20
2023-02-16T05:55:08.216Z,34.97
2023-02-16T05:57:35.775Z,36.80
2023-02-16T06:00:04.523Z,36.80
2023-02-16T06:02:31.607Z,36.80
2023-02-16T06:04:58.547Z,35.27
2023-02-16T06:07:25.251Z,35.60
2023-02-16T06:09:52.140Z,34.47
2023-02-16T06:12:18.817Z,35.60
2023-02-16T06:14:45.565Z,39.80
2023-02-16T06:17:12.741Z,46.33
2023-02-16T06:19:39.318Z,38.13
2023-02-16T06:22:08.751Z,36.93
2023-02-16T06:24:35.399Z,35.70
2023-02-16T06:27:02.383Z,33.13
2023-02-16T06:29:29.490Z,35.77
2023-02-16T06:31:56.211Z,34.10
2023-02-16T06:34:22.927Z,33.73
2023-02-16T06:36:49.618Z,33.67
2023-02-16T06:39:16.253Z,34.43
2023-02-16T06:41:44.341Z,32.47
2023-02-16T06:44:13.696Z,32.67
2023-02-16T06:46:41.852Z,33.10
2023-02-16T06:49:11.949Z,32.13
2023-02-16T06:51:39.984Z,34.17
2023-02-16T06:54:06.672Z,33.27
2023-02-16T06:56:43.511Z,34.07
2023-02-16T06:59:12.307Z,33.03
2023-02-16T07:01:38.872Z,32.70
2023-02-16T07:04:05.798Z,34.10
2023-02-16T07:06:33.461Z,33.63
2023-02-16T07:09:01.441Z,32.73
2023-02-16T07:11:28.348Z,32.37
2023-02-16T07:13:56.381Z,31.85
2023-02-16T07:16:23.158Z,33.23
2023-02-16T07:18:49.919Z,34.15
2023-02-16T07:21:16.771Z,32.00
2023-02-16T07:23:43.608Z,34.25
2023-02-16T07:26:10.393Z,36.60
2023-02-16T07:28:37.263Z,36.17
2023-02-16T07:31:09.172Z,35.40
2023-02-16T07:33:35.933Z,34.40
2023-02-16T07:36:02.700Z,33.40
2023-02-16T07:38:30.749Z,33.38
2023-02-16T07:40:58.232Z,31.65
2023-02-16T07:43:26.341Z,33.40
2023-02-16T07:45:53.399Z,33.67
2023-02-16T07:48:20.025Z,35.23
2023-02-16T07:50:46.906Z,33.63
2023-02-16T07:53:15.009Z,33.10
2023-02-16T07:55:46.894Z,33.00
2023-02-16T07:58:27.252Z,33.30
2023-02-16T08:01:08.401Z,34.55
2023-02-16T08:03:35.235Z,34.17
2023-02-16T08:06:03.238Z,33.27
2023-02-16T08:08:30.208Z,32.15
2023-02-16T08:10:56.897Z,33.47
2023-02-16T08:13:24.048Z,31.50
2023-02-16T08:15:50.653Z,30.05
2023-02-16T08:18:17.408Z,31.65
2023-02-16T08:21:03.863Z,32.35
2023-02-16T08:23:31.890Z,29.63
2023-02-16T08:25:59.074Z,30.63
2023-02-16T08:28:28.625Z,31.52
2023-02-16T08:30:55.711Z,32.22
2023-02-16T08:33:22.343Z,31.58
2023-02-16T08:35:49.381Z,31.27
2023-02-16T08:38:17.268Z,31.60
2023-02-16T08:40:49.539Z,30.63
2023-02-16T08:43:16.333Z,32.28
2023-02-16T08:45:47.651Z,31.60
2023-02-16T08:48:15.110Z,30.75
2023-02-16T08:50:55.421Z,28.90
2023-02-16T08:53:23.204Z,29.25
2023-02-16T08:55:57.581Z,27.98
2023-02-16T08:58:24.792Z,27.98
2023-02-16T09:00:51.456Z,29.30
2023-02-16T09:03:21.376Z,28.83
2023-02-16T09:05:49.812Z,28.45
2023-02-16T09:08:16.837Z,28.02
2023-02-16T09:10:43.744Z,29.38
2023-02-16T09:13:14.402Z,30.75
2023-02-16T09:15:44.671Z,31.08
2023-02-16T09:18:12.623Z,30.48
2023-02-16T09:20:41.248Z,31.42
2023-02-16T09:23:10.660Z,30.42
2023-02-16T09:25:38.668Z,30.08
2023-02-16T09:28:06.618Z,31.35
2023-02-16T09:30:34.634Z,29.63
2023-02-16T09:33:01.626Z,31.23
2023-02-16T09:35:28.275Z,29.92
2023-02-16T09:37:54.954Z,27.38
2023-02-16T09:40:22.551Z,28.73
2023-02-16T09:43:08.851Z,28.65
2023-02-16T09:45:45.997Z,28.23
2023-02-16T09:48:37.519Z,27.27
2023-02-16T09:51:06.552Z,28.10
2023-02-16T09:53:39.811Z,27.85
2023-02-16T09:56:22.697Z,25.75
2023-02-16T09:58:56.244Z,27.65
2023-02-16T10:01:51.375Z,26.05
2023-02-16T10:04:30.679Z,26.70
2023-02-16T10:07:15.506Z,24.80
2023-02-16T10:09:47.281Z,25.33
2023-02-16T10:12:20.249Z,24.55
2023-02-16T10:14:51.266Z,25.48
2023-02-16T10:17:30.947Z,25.80
2023-02-16T10:20:01.038Z,27.00
2023-02-16T10:22:36.863Z,25.83
2023-02-16T10:25:27.122Z,27.13
2023-02-16T10:28:17.584Z,26.80
2023-02-16T10:31:03.409Z,27.00
2023-02-16T10:33:42.382Z,23.33
2023-02-16T10:36:22.703Z,27.80
2023-02-16T10:39:02.573Z,27.88
2023-02-16T10:41:40.209Z,27.75
2023-02-16T10:44:16.983Z,27.20
2023-02-16T10:46:47.823Z,27.25
2023-02-16T10:49:18.980Z,27.52
2023-02-16T10:51:49.592Z,27.52
2023-02-16T10:54:24.604Z,28.45
2023-02-16T10:57:01.797Z,28.13
2023-02-16T10:59:38.924Z,26.65
2023-02-16T11:02:24.926Z,27.63
2023-02-16T11:04:54.401Z,28.90
2023-02-16T11:07:26.913Z,28.08
2023-02-16T11:09:57.180Z,27.00
2023-02-16T11:12:40.691Z,28.90
2023-02-16T11:15:20.649Z,29.75
2023-02-16T11:18:21.962Z,30.27
2023-02-16T11:20:48.529Z,29.58
2023-02-16T11:23:26.277Z,28.33
2023-02-16T11:25:59.283Z,28.42
2023-02-16T11:28:39.513Z,31.52
2023-02-16T11:31:28.755Z,28.08
2023-02-16T11:34:06.407Z,27.73
2023-02-16T11:36:37.811Z,28.70
2023-02-16T11:39:19.725Z,29.67
2023-02-16T11:41:51.106Z,29.88
2023-02-16T11:44:39.498Z,29.55
2023-02-16T11:47:24.859Z,31.08
2023-02-16T11:50:09.849Z,30.80
2023-02-16T11:52:36.901Z,31.15
2023-02-16T11:55:04.839Z,33.05
2023-02-16T11:57:36.246Z,31.75
2023-02-16T12:00:18.122Z,33.53
2023-02-16T12:03:08.050Z,32.47
2023-02-16T12:05:56.842Z,32.88
2023-02-16T12:08:34.880Z,32.47
2023-02-16T12:11:25.305Z,33.92
2023-02-16T12:14:06.384Z,32.00
2023-02-16T12:16:37.513Z,33.70
2023-02-16T12:19:36.492Z,36.95
2023-02-16T12:22:14.252Z,58.05
2023-02-16T12:24:54.721Z,36.78
2023-02-16T12:27:39.438Z,33.67
2023-02-16T12:30:12.185Z,35.88
2023-02-16T12:33:08.003Z,34.42
2023-02-16T12:36:00.312Z,32.25
2023-02-16T12:38:39.618Z,32.72
2023-02-16T12:41:26.256Z,32.75
2023-02-16T12:43:58.717Z,34.78
2023-02-16T12:46:36.587Z,37.00
2023-02-16T12:49:21.313Z,37.55
2023-02-16T12:52:01.409Z,37.85
2023-02-16T12:54:49.564Z,37.70
2023-02-16T12:57:20.384Z,35.50
2023-02-16T12:59:56.119Z,36.78
2023-02-16T13:02:28.148Z,35.42
2023-02-16T13:04:55.525Z,40.47
2023-02-16T13:07:53.084Z,37.33
2023-02-16T13:10:58.854Z,35.17
2023-02-16T13:13:30.026Z,36.08
2023-02-16T13:16:29.551Z,36.08
2023-02-16T13:18:57.223Z,34.35
2023-02-16T13:21:52.199Z,35.88
2023-02-16T13:24:37.249Z,38.42
2023-02-16T13:27:20.825Z,36.80
2023-02-16T13:30:06.665Z,35.30
2023-02-16T13:33:03.553Z,37.58
2023-02-16T13:35:47.043Z,35.33
2023-02-16T13:38:51.035Z,34.55
2023-02-16T13:41:56.718Z,38.22
2023-02-16T13:44:30.415Z,35.78
2023-02-16T13:46:57.458Z,37.10
2023-02-16T13:49:38.503Z,35.83
2023-02-16T13:52:07.436Z,36.20
2023-02-16T13:54:40.681Z,34.70
2023-02-16T13:57:56.234Z,37.45
2023-02-16T14:00:42.697Z,36.47
2023-02-16T14:03:38.122Z,35.63
2023-02-16T14:06:33.082Z,36.38
2023-02-16T14:09:15.744Z,37.05
2023-02-16T14:11:54.726Z,40.03
2023-02-16T14:14:42.224Z,39.55
2023-02-16T14:17:32.824Z,39.83
2023-02-16T14:20:26.418Z,39.92
2023-02-16T14:22:57.508Z,38.42
2023-02-16T14:25:24.217Z,41.65
2023-02-16T14:27:54.905Z,48.50
2023-02-16T14:30:36.352Z,43.00
2023-02-16T14:33:18.019Z,51.97
2023-02-16T14:35:58.629Z,46.53
2023-02-16T14:38:32.068Z,72.07
2023-02-16T14:41:01.393Z,51.92
2023-02-16T14:43:42.032Z,46.63
2023-02-16T14:46:37.783Z,53.58
2023-02-16T14:49:24.411Z,44.38
2023-02-16T14:51:57.498Z,49.58
2023-02-16T14:54:42.371Z,47.63
2023-02-16T14:57:22.060Z,45.63
2023-02-16T15:00:19.562Z,46.38
2023-02-16T15:03:03.905Z,45.55
2023-02-16T15:05:42.911Z,44.88
2023-02-16T15:08:16.630Z,45.60
2023-02-16T15:10:46.419Z,47.03
2023-02-16T15:13:27.558Z,48.00
2023-02-16T15:15:56.822Z,43.97
2023-02-16T15:18:27.771Z,44.38
2023-02-16T15:20:57.342Z,43.30
2023-02-16T15:23:27.632Z,45.67
2023-02-16T15:25:58.824Z,47.72
2023-02-16T15:28:29.321Z,44.33
2023-02-16T15:31:02.146Z,42.63
2023-02-16T15:33:37.164Z,43.90
2023-02-16T15:36:12.003Z,42.25
2023-02-16T15:38:43.844Z,40.10
2023-02-16T15:41:15.352Z,41.40
2023-02-16T15:43:48.454Z,42.25
2023-02-16T15:46:39.818Z,40.83
2023-02-16T15:49:21.351Z,39.90
2023-02-16T15:51:49.164Z,40.55
2023-02-16T15:54:29.325Z,41.60
2023-02-16T15:56:58.580Z,41.47
2023-02-16T15:59:44.770Z,40.92
2023-02-16T16:02:21.127Z,40.70
2023-02-16T16:04:54.884Z,38.40
2023-02-16T16:07:29.279Z,38.63
2023-02-16T16:09:57.867Z,38.15
2023-02-16T16:12:26.346Z,40.40
2023-02-16T16:14:58.615Z,42.03
2023-02-16T16:17:32.379Z,40.15
2023-02-16T16:20:23.658Z,41.53
2023-02-16T16:23:04.417Z,39.65
2023-02-16T16:25:44.835Z,37.53
2023-02-16T16:28:32.228Z,36.85
2023-02-16T16:31:17.653Z,37.33
2023-02-16T16:34:07.730Z,35.72
2023-02-16T16:36:40.360Z,36.40
2023-02-16T16:39:29.537Z,37.70
2023-02-16T16:42:18.909Z,36.45
2023-02-16T16:47:31.379Z,37.65
2023-02-16T16:50:34.531Z,38.70
2023-02-16T16:53:03.556Z,37.85
2023-02-16T16:55:34.575Z,41.25
2023-02-16T16:58:06.065Z,39.85
2023-02-16T17:00:36.235Z,37.95
2023-02-16T17:03:06.026Z,37.95
2023-02-16T17:05:33.893Z,37.42
2023-02-16T17:08:01.290Z,37.33
2023-02-16T17:10:28.379Z,38.28
2023-02-16T17:12:58.084Z,37.13
2023-02-16T17:15:28.408Z,41.00
2023-02-16T17:17:56.360Z,42.08
2023-02-16T17:20:23.808Z,42.33
2023-02-16T17:22:51.552Z,58.10
2023-02-16T17:25:18.809Z,45.95
2023-02-16T17:27:45.960Z,45.38
2023-02-16T17:30:13.303Z,47.65
2023-02-16T17:32:40.020Z,45.03
2023-02-16T17:35:07.068Z,63.42
2023-02-16T17:37:35.569Z,47.83
2023-02-16T17:40:03.959Z,47.90
2023-02-16T17:42:30.921Z,48.78
2023-02-16T17:45:00.806Z,60.40
2023-02-16T17:47:27.895Z,47.95
2023-02-16T17:49:54.611Z,46.85
2023-02-16T17:52:21.276Z,44.75
2023-02-16T17:54:48.238Z,46.97
2023-02-16T17:57:15.001Z,45.72
2023-02-16T17:59:42.206Z,45.10
2023-02-16T18:02:12.161Z,46.40
2023-02-16T18:04:41.434Z,45.92
2023-02-16T18:07:16.252Z,46.80
2023-02-16T18:09:42.944Z,47.60
2023-02-16T18:12:09.974Z,46.08
2023-02-16T18:14:36.691Z,45.95
2023-02-16T18:17:05.072Z,44.88
2023-02-16T18:19:32.022Z,46.25
2023-02-16T18:21:59.170Z,46.22
2023-02-16T18:24:27.064Z,46.40
2023-02-16T18:26:55.702Z,48.08
2023-02-16T18:29:22.526Z,47.08
2023-02-16T18:31:49.383Z,47.47
2023-02-16T18:34:16.828Z,48.55
2023-02-16T18:36:43.746Z,46.22
2023-02-16T18:39:10.753Z,47.25
2023-02-16T18:41:37.445Z,49.55
2023-02-16T18:44:04.969Z,51.80
2023-02-16T18:46:42.249Z,50.53
2023-02-16T18:49:08.973Z,52.15
2023-02-16T18:51:35.914Z,60.30
2023-02-16T18:54:02.706Z,66.88
2023-02-16T18:56:29.392Z,50.67
2023-02-16T18:58:59.363Z,52.00
2023-02-16T19:01:31.226Z,48.95
2023-02-16T19:03:58.564Z,50.13
2023-02-16T19:06:25.416Z,49.95
2023-02-16T19:08:53.130Z,49.58
2023-02-16T19:11:21.897Z,50.65
2023-02-16T19:13:49.073Z,50.63
2023-02-16T19:16:17.838Z,53.92
2023-02-16T19:18:45.388Z,54.72
2023-02-16T19:21:14.551Z,55.40
2023-02-16T19:23:41.255Z,58.17
2023-02-16T19:26:14.773Z,58.15
2023-02-16T19:28:42.031Z,60.53
2023-02-16T19:31:16.229Z,64.68
2023-02-16T19:33:45.989Z,61.20
2023-02-16T19:36:16.714Z,65.03
2023-02-16T19:38:48.266Z,60.17
2023-02-16T19:41:48.195Z,56.00
2023-02-16T19:44:15.121Z,56.53
2023-02-16T19:46:42.368Z,58.63
2023-02-16T19:49:11.727Z,60.13
2023-02-16T19:51:41.767Z,56.92
2023-02-16T19:54:14.464Z,52.65
2023-02-16T19:56:56.786Z,53.20
2023-02-16T19:59:24.489Z,55.78
2023-02-16T20:01:52.257Z,55.47
2023-02-16T20:04:19.806Z,55.10
2023-02-16T20:06:47.873Z,55.78
2023-02-16T20:12:20.018Z,59.25
2023-02-16T20:14:50.113Z,57.42
2023-02-16T20:17:25.495Z,59.33
2023-02-16T20:19:52.575Z,58.03
2023-02-16T20:22:19.630Z,57.63
2023-02-16T20:24:46.610Z,61.45
2023-02-16T20:27:44.205Z,58.03
2023-02-16T20:30:21.556Z,59.30
2023-02-16T20:32:48.903Z,58.35
2023-02-16T20:35:15.662Z,57.15
2023-02-16T20:37:42.411Z,59.40
2023-02-16T20:40:09.686Z,58.65
2023-02-16T20:42:37.574Z,59.42
2023-02-16T20:45:04.531Z,60.88
2023-02-16T20:47:32.044Z,58.90
2023-02-16T20:50:08.833Z,61.15
2023-02-16T20:52:35.888Z,64.03
2023-02-16T20:55:02.629Z,65.72
2023-02-16T20:57:29.326Z,66.35
2023-02-16T20:59:56.459Z,69.85
2023-02-16T21:02:23.395Z,69.78
2023-02-16T21:04:55.983Z,69.38
2023-02-16T21:07:22.855Z,74.38
2023-02-16T21:09:49.539Z,101.00
2023-02-16T21:12:16.235Z,94.30
2023-02-16T21:14:43.165Z,79.00
2023-02-16T21:17:11.156Z,78.68
2023-02-16T21:20:09.380Z,75.65
2023-02-16T21:22:34.907Z,77.15
2023-02-16T21:25:01.686Z,78.45
2023-02-16T21:27:28.253Z,78.10
2023-02-16T21:29:54.889Z,80.40
2023-02-16T21:32:21.651Z,77.38
2023-02-16T21:34:48.306Z,79.47
2023-02-16T21:37:15.064Z,81.15
2023-02-16T21:40:00.274Z,79.93
2023-02-16T21:42:27.404Z,79.15
2023-02-16T21:45:12.306Z,78.95
2023-02-16T21:47:58.815Z,77.03
2023-02-16T21:50:25.985Z,79.03
2023-02-16T21:52:53.327Z,74.93
2023-02-16T21:55:39.150Z,79.47
2023-02-16T21:58:10.649Z,77.97
2023-02-16T22:00:38.193Z,72.35
2023-02-16T22:03:05.191Z,66.38
2023-02-16T22:05:34.413Z,74.72
2023-02-16T22:08:01.247Z,74.05
2023-02-16T22:10:28.671Z,68.88
2023-02-16T22:12:56.989Z,72.15
2023-02-16T22:15:25.879Z,70.25
2023-02-16T22:17:52.601Z,69.22
2023-02-16T22:20:19.403Z,71.90
2023-02-16T22:22:46.365Z,66.22
2023-02-16T22:25:13.828Z,67.63
2023-02-16T22:27:40.560Z,68.72
2023-02-16T22:30:08.277Z,66.78
2023-02-16T22:32:35.054Z,68.82
2023-02-16T22:35:01.745Z,64.53
2023-02-16T22:37:28.462Z,66.40
2023-02-16T22:39:55.176Z,65.10
2023-02-16T22:42:22.457Z,62.35
2023-02-16T22:44:49.305Z,65.05
2023-02-16T22:47:16.097Z,65.20
2023-02-16T22:49:43.177Z,63.50
2023-02-16T22:52:11.377Z,60.45
2023-02-16T22:54:38.245Z,61.72
2023-02-16T22:57:07.102Z,61.63
2023-02-16T22:59:34.196Z,63.35
2023-02-16T23:02:00.876Z,60.60
2023-02-16T23:04:28.759Z,58.65
2023-02-16T23:06:55.314Z,59.35
2023-02-16T23:09:22.174Z,62.22
2023-02-16T23:11:49.721Z,59.55
2023-02-16T23:14:17.225Z,60.30
2023-02-16T23:16:45.490Z,60.08
2023-02-16T23:19:19.537Z,59.38
2023-02-16T23:21:48.048Z,57.22
2023-02-16T23:24:20.703Z,55.92
2023-02-16T23:26:47.651Z,52.45
2023-02-16T23:29:14.310Z,52.03
2023-02-16T23:31:42.974Z,49.75
2023-02-16T23:34:11.252Z,48.15
2023-02-16T23:36:38.371Z,51.67
2023-02-16T23:39:11.407Z,51.10
2023-02-16T23:41:38.397Z,51.92
2023-02-16T23:44:05.652Z,47.67
2023-02-16T23:46:33.277Z,50.70
2023-02-16T23:49:00.338Z,49.22
2023-02-16T23:51:28.105Z,49.08
2023-02-16T23:53:55.071Z,48.92
2023-02-16T23:56:24.182Z,48.08
2023-02-16T23:58:51.740Z,46.22
